createdAt,value
2019-01-03T00:00:52.499Z,-0.1
2019-01-03T00:01:52.448Z,-0.12
2019-01-03T00:02:52.601Z,-0.13
2019-01-03T00:03:52.488Z,-0.13
2019-01-03T00:04:52.769Z,-0.17
2019-01-03T00:05:52.588Z,-0.16
2019-01-03T00:06:52.523Z,-0.19
2019-01-03T00:07:52.618Z,-0.2
2019-01-03T00:08:53.695Z,-0.21
2019-01-03T00:09:52.802Z,-0.22
2019-01-03T00:10:52.569Z,-0.25
2019-01-03T00:11:52.990Z,-0.28
2019-01-03T00:12:52.657Z,-0.28
2019-01-03T00:13:52.967Z,-0.3
2019-01-03T00:14:52.529Z,-0.38
2019-01-03T00:15:52.680Z,-0.45
2019-01-03T00:16:52.613Z,-0.47
2019-01-03T00:17:52.581Z,-0.48
2019-01-03T00:18:52.726Z,-0.51
2019-01-03T00:19:52.444Z,-0.57
2019-01-03T00:20:52.537Z,-0.58
2019-01-03T00:21:52.579Z,-0.54
2019-01-03T00:22:52.722Z,-0.56
2019-01-03T00:23:52.618Z,-0.59
2019-01-03T00:24:52.499Z,-0.58
2019-01-03T00:25:53.304Z,-0.57
2019-01-03T00:26:54.287Z,-0.63
2019-01-03T00:27:52.415Z,-0.62
2019-01-03T00:28:52.423Z,-0.63
2019-01-03T00:29:52.452Z,-0.65
2019-01-03T00:30:52.590Z,-0.65
2019-01-03T00:31:52.548Z,-0.69
2019-01-03T00:32:52.471Z,-0.67
2019-01-03T00:33:52.524Z,-0.66
2019-01-03T00:34:52.508Z,-0.68
2019-01-03T00:35:52.625Z,-0.69
2019-01-03T00:36:52.404Z,-0.7
2019-01-03T00:37:52.522Z,-0.69
2019-01-03T00:38:52.568Z,-0.68
2019-01-03T00:39:52.386Z,-0.7
2019-01-03T00:40:52.768Z,-0.7
2019-01-03T00:41:52.479Z,-0.71
2019-01-03T00:42:52.441Z,-0.73
2019-01-03T00:43:52.446Z,-0.7
2019-01-03T00:44:52.482Z,-0.73
2019-01-03T00:45:52.643Z,-0.69
2019-01-03T00:46:52.588Z,-0.69
2019-01-03T00:47:52.555Z,-0.66
2019-01-03T00:48:52.521Z,-0.68
2019-01-03T00:49:52.402Z,-0.67
2019-01-03T00:50:52.587Z,-0.65
2019-01-03T00:51:52.601Z,-0.64
2019-01-03T00:52:52.578Z,-0.67
2019-01-03T00:53:52.636Z,-0.66
2019-01-03T00:54:52.556Z,-0.67
2019-01-03T00:55:52.394Z,-0.7
2019-01-03T00:56:52.484Z,-0.71
2019-01-03T00:57:52.566Z,-0.71
2019-01-03T00:58:52.365Z,-0.7
2019-01-03T00:59:52.725Z,-0.71
2019-01-03T01:00:52.460Z,-0.74
2019-01-03T01:01:52.746Z,-0.74
2019-01-03T01:02:52.510Z,-0.74
2019-01-03T01:03:52.840Z,-0.75
2019-01-03T01:04:52.549Z,-0.76
2019-01-03T01:05:52.366Z,-0.76
2019-01-03T01:06:52.437Z,-0.79
2019-01-03T01:07:52.496Z,-0.78
2019-01-03T01:08:52.635Z,-0.8
2019-01-03T01:09:52.398Z,-0.79
2019-01-03T01:10:52.678Z,-0.82
2019-01-03T01:11:52.758Z,-0.83
2019-01-03T01:12:52.622Z,-0.84
2019-01-03T01:13:52.327Z,-0.84
2019-01-03T01:14:52.392Z,-0.87
2019-01-03T01:15:52.605Z,-0.88
2019-01-03T01:16:52.484Z,-0.88
2019-01-03T01:17:52.390Z,-0.87
2019-01-03T01:18:52.376Z,-0.88
2019-01-03T01:19:52.453Z,-0.89
2019-01-03T01:20:52.340Z,-0.88
2019-01-03T01:21:52.516Z,-0.88
2019-01-03T01:22:52.354Z,-0.89
2019-01-03T01:23:52.648Z,-0.89
2019-01-03T01:24:52.391Z,-0.9
2019-01-03T01:25:52.591Z,-0.88
2019-01-03T01:26:52.350Z,-0.9
2019-01-03T01:27:52.388Z,-0.9
2019-01-03T01:28:52.415Z,-0.9
2019-01-03T01:29:52.367Z,-0.9
2019-01-03T01:30:52.420Z,-0.9
2019-01-03T01:31:52.412Z,-0.9
2019-01-03T01:32:52.423Z,-0.9
2019-01-03T01:33:52.323Z,-0.9
2019-01-03T01:34:52.350Z,-0.9
2019-01-03T01:35:52.309Z,-0.89
2019-01-03T01:36:52.299Z,-0.9
2019-01-03T01:37:52.343Z,-0.87
2019-01-03T01:38:52.347Z,-0.89
2019-01-03T01:39:52.777Z,-0.88
2019-01-03T01:40:52.316Z,-0.9
2019-01-03T01:41:52.396Z,-0.92
2019-01-03T01:42:52.302Z,-0.97
2019-01-03T01:43:52.570Z,-0.97
2019-01-03T01:44:52.330Z,-0.96
2019-01-03T01:45:52.325Z,-0.99
2019-01-03T01:46:52.577Z,-0.99
2019-01-03T01:47:52.772Z,-0.97
2019-01-03T01:48:52.744Z,-1
2019-01-03T01:49:52.426Z,-1.01
2019-01-03T01:50:52.421Z,-1.04
2019-01-03T01:51:52.389Z,-1.03
2019-01-03T01:52:53.147Z,-1.06
2019-01-03T01:53:53.414Z,-1.06
2019-01-03T01:54:52.311Z,-1.08
2019-01-03T01:55:53.131Z,-1.09
2019-01-03T01:56:52.340Z,-1.14
2019-01-03T01:57:52.462Z,-1.12
2019-01-03T01:58:52.494Z,-1.14
2019-01-03T01:59:52.580Z,-1.15
2019-01-03T02:00:52.462Z,-1.17
2019-01-03T02:01:52.764Z,-1.18
2019-01-03T02:02:52.352Z,-1.21
2019-01-03T02:03:52.405Z,-1.22
2019-01-03T02:04:52.325Z,-1.24
2019-01-03T02:05:52.361Z,-1.25
2019-01-03T02:06:52.663Z,-1.25
2019-01-03T02:07:52.481Z,-1.24
2019-01-03T02:08:52.087Z,-1.23
2019-01-03T02:09:53.076Z,-1.22
2019-01-03T02:10:52.370Z,-1.22
2019-01-03T02:11:52.520Z,-1.22
2019-01-03T02:12:52.707Z,-1.24
2019-01-03T02:13:52.597Z,-1.21
2019-01-03T02:14:52.293Z,-1.22
2019-01-03T02:15:52.235Z,-1.18
2019-01-03T02:16:52.495Z,-1.19
2019-01-03T02:17:52.477Z,-1.2
2019-01-03T02:18:52.436Z,-1.19
2019-01-03T02:19:52.491Z,-1.17
2019-01-03T02:20:52.462Z,-1.17
2019-01-03T02:21:52.618Z,-1.16
2019-01-03T02:22:52.439Z,-1.15
2019-01-03T02:23:53.142Z,-1.16
2019-01-03T02:24:52.871Z,-1.18
2019-01-03T02:25:52.410Z,-1.26
2019-01-03T02:26:52.528Z,-1.29
2019-01-03T02:27:52.611Z,-1.29
2019-01-03T02:28:52.452Z,-1.33
2019-01-03T02:29:52.431Z,-1.33
2019-01-03T02:30:53.187Z,-1.34
2019-01-03T02:31:52.510Z,-1.33
2019-01-03T02:32:52.291Z,-1.32
2019-01-03T02:33:52.667Z,-1.32
2019-01-03T02:34:52.495Z,-1.35
2019-01-03T02:35:52.227Z,-1.33
2019-01-03T02:36:52.938Z,-1.33
2019-01-03T02:37:52.266Z,-1.32
2019-01-03T02:38:53.081Z,-1.32
2019-01-03T02:39:52.667Z,-1.31
2019-01-03T02:40:52.558Z,-1.32
2019-01-03T02:41:52.450Z,-1.33
2019-01-03T02:42:52.841Z,-1.33
2019-01-03T02:43:52.377Z,-1.33
2019-01-03T02:44:52.296Z,-1.33
2019-01-03T02:45:52.489Z,-1.31
2019-01-03T02:46:52.627Z,-1.33
2019-01-03T02:47:52.640Z,-1.3
2019-01-03T02:48:52.390Z,-1.33
2019-01-03T02:49:52.381Z,-1.33
2019-01-03T02:50:52.419Z,-1.33
2019-01-03T02:51:52.356Z,-1.31
2019-01-03T02:52:52.638Z,-1.33
2019-01-03T02:53:52.765Z,-1.3
2019-01-03T02:54:52.495Z,-1.33
2019-01-03T02:55:52.265Z,-1.3
2019-01-03T02:56:52.327Z,-1.3
2019-01-03T02:57:52.247Z,-1.3
2019-01-03T02:58:52.712Z,-1.33
2019-01-03T02:59:52.243Z,-1.35
2019-01-03T03:00:52.549Z,-1.36
2019-01-03T03:01:52.428Z,-1.37
2019-01-03T03:02:52.588Z,-1.41
2019-01-03T03:03:52.358Z,-1.41
2019-01-03T03:04:52.809Z,-1.45
2019-01-03T03:05:52.470Z,-1.47
2019-01-03T03:06:52.862Z,-1.51
2019-01-03T03:07:52.539Z,-1.51
2019-01-03T03:08:52.372Z,-1.56
2019-01-03T03:09:52.536Z,-1.66
2019-01-03T03:10:52.690Z,-1.72
2019-01-03T03:11:52.262Z,-1.76
2019-01-03T03:12:52.272Z,-1.72
2019-01-03T03:13:52.303Z,-1.72
2019-01-03T03:14:52.203Z,-1.71
2019-01-03T03:15:52.235Z,-1.71
2019-01-03T03:16:52.560Z,-1.68
2019-01-03T03:17:52.422Z,-1.67
2019-01-03T03:18:52.214Z,-1.65
2019-01-03T03:19:52.197Z,-1.64
2019-01-03T03:20:52.407Z,-1.64
2019-01-03T03:21:52.417Z,-1.62
2019-01-03T03:22:52.236Z,-1.63
2019-01-03T03:23:52.933Z,-1.61
2019-01-03T03:24:53.922Z,-1.61
2019-01-03T03:25:52.239Z,-1.62
2019-01-03T03:26:52.442Z,-1.62
2019-01-03T03:27:52.327Z,-1.62
2019-01-03T03:28:52.540Z,-1.65
2019-01-03T03:29:52.135Z,-1.62
2019-01-03T03:30:52.451Z,-1.63
2019-01-03T03:31:52.192Z,-1.65
2019-01-03T03:32:52.523Z,-1.61
2019-01-03T03:33:52.686Z,-1.62
2019-01-03T03:34:52.420Z,-1.63
2019-01-03T03:35:52.480Z,-1.67
2019-01-03T03:36:52.297Z,-1.7
2019-01-03T03:37:52.212Z,-1.72
2019-01-03T03:38:52.527Z,-1.74
2019-01-03T03:39:52.469Z,-1.74
2019-01-03T03:40:51.946Z,-1.78
2019-01-03T03:41:52.138Z,-1.78
2019-01-03T03:42:52.312Z,-1.83
2019-01-03T03:43:52.549Z,-1.87
2019-01-03T03:44:52.196Z,-1.89
2019-01-03T03:45:52.918Z,-1.89
2019-01-03T03:46:52.645Z,-1.88
2019-01-03T03:47:53.056Z,-1.88
2019-01-03T03:48:52.209Z,-1.88
2019-01-03T03:49:52.285Z,-1.87
2019-01-03T03:50:52.385Z,-1.84
2019-01-03T03:51:52.357Z,-1.86
2019-01-03T03:52:52.425Z,-1.83
2019-01-03T03:53:52.303Z,-1.86
2019-01-03T03:54:52.480Z,-1.89
2019-01-03T03:55:52.153Z,-1.9
2019-01-03T03:56:52.261Z,-1.96
2019-01-03T03:57:52.559Z,-1.96
2019-01-03T03:58:52.254Z,-1.96
2019-01-03T03:59:52.381Z,-1.95
2019-01-03T04:00:52.495Z,-1.92
2019-01-03T04:01:52.318Z,-1.91
2019-01-03T04:02:52.162Z,-1.89
2019-01-03T04:03:52.276Z,-1.9
2019-01-03T04:04:52.320Z,-1.89
2019-01-03T04:05:52.424Z,-1.86
2019-01-03T04:06:52.473Z,-1.86
2019-01-03T04:07:52.389Z,-1.85
2019-01-03T04:08:52.329Z,-1.86
2019-01-03T04:09:52.235Z,-1.89
2019-01-03T04:10:52.613Z,-1.91
2019-01-03T04:11:52.370Z,-1.92
2019-01-03T04:12:52.433Z,-1.91
2019-01-03T04:13:52.453Z,-1.9
2019-01-03T04:14:53.011Z,-1.89
2019-01-03T04:15:52.296Z,-1.85
2019-01-03T04:16:52.331Z,-1.84
2019-01-03T04:17:52.434Z,-1.83
2019-01-03T04:18:52.279Z,-1.79
2019-01-03T04:19:52.217Z,-1.81
2019-01-03T04:20:52.289Z,-1.82
2019-01-03T04:21:52.165Z,-1.84
2019-01-03T04:22:52.360Z,-1.83
2019-01-03T04:23:52.158Z,-1.83
2019-01-03T04:24:52.863Z,-1.82
2019-01-03T04:25:52.197Z,-1.79
2019-01-03T04:26:52.340Z,-1.78
2019-01-03T04:27:52.922Z,-1.8
2019-01-03T04:28:52.332Z,-1.85
2019-01-03T04:29:52.211Z,-1.86
2019-01-03T04:30:52.338Z,-1.85
2019-01-03T04:31:52.226Z,-1.84
2019-01-03T04:32:52.304Z,-1.84
2019-01-03T04:33:52.418Z,-1.83
2019-01-03T04:34:52.426Z,-1.84
2019-01-03T04:35:52.511Z,-1.84
2019-01-03T04:36:52.186Z,-1.84
2019-01-03T04:37:52.329Z,-1.84
2019-01-03T04:38:52.919Z,-1.84
2019-01-03T04:39:52.209Z,-1.85
2019-01-03T04:40:52.479Z,-1.87
2019-01-03T04:41:52.170Z,-1.87
2019-01-03T04:42:52.720Z,-1.87
2019-01-03T04:43:52.351Z,-1.88
2019-01-03T04:44:52.435Z,-1.86
2019-01-03T04:45:52.251Z,-1.88
2019-01-03T04:46:52.093Z,-1.87
2019-01-03T04:47:52.244Z,-1.88
2019-01-03T04:48:52.175Z,-1.89
2019-01-03T04:49:52.202Z,-1.87
2019-01-03T04:50:52.252Z,-1.92
2019-01-03T04:51:52.181Z,-1.92
2019-01-03T04:52:52.130Z,-1.96
2019-01-03T04:53:52.144Z,-1.97
2019-01-03T04:54:52.166Z,-1.97
2019-01-03T04:55:52.135Z,-1.98
2019-01-03T04:56:52.283Z,-1.98
2019-01-03T04:57:52.304Z,-2
2019-01-03T04:58:52.280Z,-1.95
2019-01-03T04:59:52.270Z,-2.02
2019-01-03T05:00:52.257Z,-2.04
2019-01-03T05:01:52.169Z,-2.05
2019-01-03T05:02:52.139Z,-2.04
2019-01-03T05:03:52.233Z,-2.07
2019-01-03T05:04:52.117Z,-2.07
2019-01-03T05:05:52.125Z,-2.08
2019-01-03T05:06:52.050Z,-2.09
2019-01-03T05:07:52.229Z,-2.09
2019-01-03T05:08:52.230Z,-2.08
2019-01-03T05:09:52.192Z,-2.09
2019-01-03T05:10:52.326Z,-2.11
2019-01-03T05:11:52.168Z,-2.14
2019-01-03T05:12:52.043Z,-2.15
2019-01-03T05:13:52.015Z,-2.15
2019-01-03T05:14:52.230Z,-2.16
2019-01-03T05:15:52.330Z,-2.15
2019-01-03T05:16:52.509Z,-2.16
2019-01-03T05:17:52.168Z,-2.13
2019-01-03T05:18:52.027Z,-2.11
2019-01-03T05:19:52.307Z,-2.14
2019-01-03T05:20:52.056Z,-2.15
2019-01-03T05:21:52.234Z,-2.14
2019-01-03T05:22:52.349Z,-2.14
2019-01-03T05:23:58.119Z,-2.11
2019-01-03T05:24:52.441Z,-2.12
2019-01-03T05:25:52.126Z,-2.08
2019-01-03T05:26:52.002Z,-2.07
2019-01-03T05:27:52.483Z,-2.07
2019-01-03T05:28:52.768Z,-2.04
2019-01-03T05:29:52.295Z,-2.03
2019-01-03T05:30:52.157Z,-2.03
2019-01-03T05:31:52.289Z,-2.01
2019-01-03T05:32:52.351Z,-2.03
2019-01-03T05:33:52.035Z,-2.04
2019-01-03T05:34:52.002Z,-2.06
2019-01-03T05:35:52.361Z,-2.08
2019-01-03T05:36:52.221Z,-2.06
2019-01-03T05:37:52.277Z,-2.06
2019-01-03T05:38:52.211Z,-2.1
2019-01-03T05:39:52.005Z,-2.1
2019-01-03T05:40:51.960Z,-2.14
2019-01-03T05:41:52.307Z,-2.13
2019-01-03T05:42:52.497Z,-2.14
2019-01-03T05:43:52.018Z,-2.13
2019-01-03T05:44:52.266Z,-2.12
2019-01-03T05:45:52.213Z,-2.09
2019-01-03T05:46:52.492Z,-2.09
2019-01-03T05:47:52.148Z,-2.08
2019-01-03T05:48:52.198Z,-2.08
2019-01-03T05:49:52.151Z,-2.08
2019-01-03T05:50:51.825Z,-2.09
2019-01-03T05:51:52.721Z,-2.09
2019-01-03T05:52:51.968Z,-2.09
2019-01-03T05:53:52.128Z,-2.08
2019-01-03T05:54:52.258Z,-2.09
2019-01-03T05:55:52.195Z,-2.08
2019-01-03T05:56:51.977Z,-2.06
2019-01-03T05:57:52.210Z,-2.03
2019-01-03T05:58:52.847Z,-2.02
2019-01-03T05:59:52.150Z,-2
2019-01-03T06:00:51.982Z,-2
2019-01-03T06:01:52.801Z,-1.97
2019-01-03T06:02:52.008Z,-1.97
2019-01-03T06:03:52.325Z,-1.96
2019-01-03T06:04:52.309Z,-1.95
2019-01-03T06:05:51.939Z,-1.91
2019-01-03T06:06:52.508Z,-1.9
2019-01-03T06:07:52.300Z,-1.89
2019-01-03T06:08:52.118Z,-1.87
2019-01-03T06:09:51.952Z,-1.88
2019-01-03T06:10:52.046Z,-1.88
2019-01-03T06:11:52.143Z,-1.84
2019-01-03T06:12:52.522Z,-1.84
2019-01-03T06:13:52.208Z,-1.79
2019-01-03T06:14:52.590Z,-1.76
2019-01-03T06:15:52.629Z,-1.78
2019-01-03T06:16:52.292Z,-1.75
2019-01-03T06:17:52.077Z,-1.74
2019-01-03T06:18:52.000Z,-1.74
2019-01-03T06:19:52.155Z,-1.74
2019-01-03T06:20:52.163Z,-1.73
2019-01-03T06:21:52.154Z,-1.71
2019-01-03T06:22:52.488Z,-1.72
2019-01-03T06:23:52.205Z,-1.7
2019-01-03T06:24:52.185Z,-1.7
2019-01-03T06:25:51.927Z,-1.67
2019-01-03T06:26:52.057Z,-1.68
2019-01-03T06:27:52.134Z,-1.67
2019-01-03T06:28:52.226Z,-1.66
2019-01-03T06:29:51.884Z,-1.66
2019-01-03T06:30:52.412Z,-1.63
2019-01-03T06:31:52.017Z,-1.63
2019-01-03T06:32:52.421Z,-1.61
2019-01-03T06:33:52.022Z,-1.59
2019-01-03T06:34:51.962Z,-1.6
2019-01-03T06:35:53.634Z,-1.59
2019-01-03T06:36:52.022Z,-1.58
2019-01-03T06:37:51.877Z,-1.58
2019-01-03T06:38:51.871Z,-1.55
2019-01-03T06:39:51.858Z,-1.55
2019-01-03T06:40:51.953Z,-1.52
2019-01-03T06:41:51.879Z,-1.53
2019-01-03T06:42:52.322Z,-1.5
2019-01-03T06:43:51.899Z,-1.51
2019-01-03T06:44:51.948Z,-1.48
2019-01-03T06:45:51.919Z,-1.47
2019-01-03T06:46:51.916Z,-1.47
2019-01-03T06:47:52.355Z,-1.44
2019-01-03T06:48:52.129Z,-1.45
2019-01-03T06:49:51.887Z,-1.44
2019-01-03T06:50:52.131Z,-1.45
2019-01-03T06:51:52.146Z,-1.47
2019-01-03T06:52:51.907Z,-1.46
2019-01-03T06:53:52.008Z,-1.44
2019-01-03T06:54:52.157Z,-1.42
2019-01-03T06:55:52.538Z,-1.4
2019-01-03T06:56:52.016Z,-1.37
2019-01-03T06:57:52.268Z,-1.36
2019-01-03T06:58:51.996Z,-1.35
2019-01-03T06:59:51.902Z,-1.34
2019-01-03T07:00:52.231Z,-1.34
2019-01-03T07:01:52.017Z,-1.32
2019-01-03T07:02:52.129Z,-1.32
2019-01-03T07:03:52.357Z,-1.32
2019-01-03T07:04:51.937Z,-1.31
2019-01-03T07:05:52.096Z,-1.31
2019-01-03T07:06:52.209Z,-1.3
2019-01-03T07:07:52.093Z,-1.29
2019-01-03T07:08:51.878Z,-1.29
2019-01-03T07:09:51.819Z,-1.29
2019-01-03T07:10:52.286Z,-1.28
2019-01-03T07:11:51.967Z,-1.27
2019-01-03T07:12:52.127Z,-1.24
2019-01-03T07:13:52.252Z,-1.24
2019-01-03T07:14:51.876Z,-1.23
2019-01-03T07:15:52.744Z,-1.25
2019-01-03T07:16:52.207Z,-1.25
2019-01-03T07:17:51.925Z,-1.24
2019-01-03T07:18:51.897Z,-1.23
2019-01-03T07:19:52.194Z,-1.21
2019-01-03T07:20:52.100Z,-1.18
2019-01-03T07:21:52.300Z,-1.16
2019-01-03T07:22:51.945Z,-1.17
2019-01-03T07:23:51.847Z,-1.14
2019-01-03T07:24:52.078Z,-1.13
2019-01-03T07:25:53.619Z,-1.15
2019-01-03T07:26:52.235Z,-1.13
2019-01-03T07:27:52.199Z,-1.11
2019-01-03T07:28:56.171Z,-1.11
2019-01-03T07:29:52.205Z,-1.12
2019-01-03T07:30:52.696Z,-1.12
2019-01-03T07:31:51.855Z,-1.12
2019-01-03T07:32:51.927Z,-1.12
2019-01-03T07:33:52.153Z,-1.11
2019-01-03T07:34:52.202Z,-1.11
2019-01-03T07:35:52.169Z,-1.12
2019-01-03T07:36:52.144Z,-1.12
2019-01-03T07:37:51.817Z,-1.14
2019-01-03T07:38:53.152Z,-1.12
2019-01-03T07:39:51.929Z,-1.12
2019-01-03T07:40:52.037Z,-1.14
2019-01-03T07:41:52.002Z,-1.14
2019-01-03T07:42:52.168Z,-1.12
2019-01-03T07:43:52.194Z,-1.12
2019-01-03T07:44:51.929Z,-1.14
2019-01-03T07:45:51.820Z,-1.15
2019-01-03T07:46:52.097Z,-1.12
2019-01-03T07:47:52.176Z,-1.15
2019-01-03T07:48:52.166Z,-1.13
2019-01-03T07:49:51.910Z,-1.16
2019-01-03T07:50:51.836Z,-1.13
2019-01-03T07:51:51.983Z,-1.15
2019-01-03T07:52:52.305Z,-1.15
2019-01-03T07:53:51.873Z,-1.15
2019-01-03T07:54:52.639Z,-1.15
2019-01-03T07:55:52.430Z,-1.16
2019-01-03T07:56:51.775Z,-1.13
2019-01-03T07:57:51.800Z,-1.14
2019-01-03T07:58:52.149Z,-1.11
2019-01-03T07:59:51.969Z,-1.11
2019-01-03T08:00:52.039Z,-1.11
2019-01-03T08:01:51.748Z,-1.11
2019-01-03T08:02:52.121Z,-1.1
2019-01-03T08:03:52.245Z,-1.11
2019-01-03T08:04:52.003Z,-1.11
2019-01-03T08:05:51.831Z,-1.1
2019-01-03T08:06:52.656Z,-1.1
2019-01-03T08:07:51.815Z,-1.1
2019-01-03T08:08:52.399Z,-1.1
2019-01-03T08:09:51.983Z,-1.09
2019-01-03T08:10:51.886Z,-1.1
2019-01-03T08:11:51.985Z,-1.09
2019-01-03T08:12:51.765Z,-1.09
2019-01-03T08:13:51.941Z,-1.09
2019-01-03T08:14:51.925Z,-1.09
2019-01-03T08:15:52.850Z,-1.09
2019-01-03T08:16:51.991Z,-1.09
2019-01-03T08:17:51.830Z,-1.06
2019-01-03T08:18:52.107Z,-1.05
2019-01-03T08:19:51.994Z,-1.05
2019-01-03T08:20:51.733Z,-1.04
2019-01-03T08:21:51.770Z,-1.01
2019-01-03T08:22:52.139Z,-1.06
2019-01-03T08:23:52.249Z,-1.04
2019-01-03T08:24:52.149Z,-1.06
2019-01-03T08:25:52.300Z,-1.05
2019-01-03T08:26:52.139Z,-1.04
2019-01-03T08:27:51.810Z,-1.06
2019-01-03T08:28:51.838Z,-1.05
2019-01-03T08:29:51.758Z,-1.07
2019-01-03T08:30:51.782Z,-1.03
2019-01-03T08:31:51.892Z,-1.02
2019-01-03T08:32:51.767Z,-0.99
2019-01-03T08:33:51.784Z,-0.99
2019-01-03T08:34:51.744Z,-0.98
2019-01-03T08:35:51.869Z,-1
2019-01-03T08:36:51.876Z,-0.97
2019-01-03T08:37:51.969Z,-0.97
2019-01-03T08:38:52.540Z,-0.96
2019-01-03T08:39:52.040Z,-0.95
2019-01-03T08:40:51.961Z,-0.96
2019-01-03T08:41:52.103Z,-0.93
2019-01-03T08:42:51.754Z,-0.91
2019-01-03T08:43:53.275Z,-0.91
2019-01-03T08:44:52.146Z,-0.91
2019-01-03T08:45:52.224Z,-0.9
2019-01-03T08:46:51.796Z,-0.91
2019-01-03T08:47:51.655Z,-0.91
2019-01-03T08:48:51.835Z,-0.91
2019-01-03T08:49:51.713Z,-0.9
2019-01-03T08:50:51.891Z,-0.86
2019-01-03T08:51:51.711Z,-0.84
2019-01-03T08:52:52.077Z,-0.81
2019-01-03T08:53:51.743Z,-0.79
2019-01-03T08:54:52.208Z,-0.78
2019-01-03T08:55:51.804Z,-0.78
2019-01-03T08:56:52.053Z,-0.74
2019-01-03T08:57:51.728Z,-0.72
2019-01-03T08:58:51.967Z,-0.7
2019-01-03T08:59:51.808Z,-0.67
2019-01-03T09:00:52.108Z,-0.64
2019-01-03T09:01:51.686Z,-0.65
2019-01-03T09:02:51.976Z,-0.61
2019-01-03T09:03:51.870Z,-0.59
2019-01-03T09:04:52.725Z,-0.57
2019-01-03T09:05:51.731Z,-0.59
2019-01-03T09:06:51.653Z,-0.57
2019-01-03T09:07:51.704Z,-0.57
2019-01-03T09:08:51.685Z,-0.54
2019-01-03T09:09:51.691Z,-0.54
2019-01-03T09:10:52.107Z,-0.53
2019-01-03T09:11:51.773Z,-0.53
2019-01-03T09:12:51.738Z,-0.52
2019-01-03T09:13:52.165Z,-0.52
2019-01-03T09:14:52.196Z,-0.52
2019-01-03T09:15:51.936Z,-0.52
2019-01-03T09:16:51.715Z,-0.52
2019-01-03T09:17:51.949Z,-0.49
2019-01-03T09:18:51.686Z,-0.49
2019-01-03T09:19:51.856Z,-0.48
2019-01-03T09:20:52.312Z,-0.46
2019-01-03T09:21:51.996Z,-0.47
2019-01-03T09:22:51.840Z,-0.47
2019-01-03T09:23:51.920Z,-0.47
2019-01-03T09:24:52.365Z,-0.47
2019-01-03T09:25:51.735Z,-0.46
2019-01-03T09:26:51.803Z,-0.44
2019-01-03T09:27:51.877Z,-0.45
2019-01-03T09:28:52.535Z,-0.45
2019-01-03T09:29:51.903Z,-0.44
2019-01-03T09:30:51.705Z,-0.43
2019-01-03T09:31:51.813Z,-0.42
2019-01-03T09:32:51.663Z,-0.42
2019-01-03T09:33:51.725Z,-0.42
2019-01-03T09:34:51.728Z,-0.42
2019-01-03T09:35:51.647Z,-0.42
2019-01-03T09:36:51.798Z,-0.4
2019-01-03T09:37:51.811Z,-0.39
2019-01-03T09:38:52.217Z,-0.35
2019-01-03T09:39:52.107Z,-0.33
2019-01-03T09:40:52.032Z,-0.3
2019-01-03T09:41:52.133Z,-0.28
2019-01-03T09:42:55.790Z,-0.25
2019-01-03T09:43:51.703Z,-0.22
2019-01-03T09:44:52.179Z,-0.22
2019-01-03T09:45:51.830Z,-0.19
2019-01-03T09:46:51.912Z,-0.19
2019-01-03T09:47:54.201Z,-0.18
2019-01-03T09:48:51.826Z,-0.17
2019-01-03T09:49:53.684Z,-0.16
2019-01-03T09:50:51.870Z,-0.13
2019-01-03T09:51:51.663Z,-0.12
2019-01-03T09:52:51.882Z,-0.12
2019-01-03T09:53:51.657Z,-0.15
2019-01-03T09:54:51.846Z,-0.11
2019-01-03T09:55:52.144Z,-0.11
2019-01-03T09:56:52.232Z,-0.11
2019-01-03T09:57:51.828Z,-0.11
2019-01-03T09:58:52.127Z,-0.08
2019-01-03T09:59:51.623Z,-0.08
2019-01-03T10:00:52.175Z,-0.06
2019-01-03T10:01:51.792Z,-0.09
2019-01-03T10:02:51.633Z,-0.06
2019-01-03T10:03:51.835Z,-0.08
2019-01-03T10:04:51.740Z,-0.04
2019-01-03T10:05:51.650Z,-0.06
2019-01-03T10:06:51.667Z,-0.03
2019-01-03T10:07:52.086Z,-0.03
2019-01-03T10:08:52.869Z,0
2019-01-03T10:09:51.699Z,-0.02
2019-01-03T10:10:51.580Z,0.01
2019-01-03T10:11:51.621Z,0.03
2019-01-03T10:12:51.687Z,0.06
2019-01-03T10:13:51.590Z,0.07
2019-01-03T10:14:51.642Z,0.08
2019-01-03T10:15:51.633Z,0.08
2019-01-03T10:16:51.843Z,0.08
2019-01-03T10:17:51.570Z,0.09
2019-01-03T10:18:52.166Z,0.13
2019-01-03T10:19:51.573Z,0.1
2019-01-03T10:20:51.702Z,0.13
2019-01-03T10:21:51.744Z,0.16
2019-01-03T10:22:51.596Z,0.17
2019-01-03T10:23:52.100Z,0.21
2019-01-03T10:24:51.751Z,0.25
2019-01-03T10:25:52.524Z,0.26
2019-01-03T10:26:52.053Z,0.27
2019-01-03T10:27:51.684Z,0.28
2019-01-03T10:28:51.688Z,0.29
2019-01-03T10:29:51.853Z,0.31
2019-01-03T10:30:51.672Z,0.33
2019-01-03T10:31:51.930Z,0.37
2019-01-03T10:32:51.573Z,0.35
2019-01-03T10:33:51.608Z,0.36
2019-01-03T10:34:52.741Z,0.35
2019-01-03T10:35:51.902Z,0.39
2019-01-03T10:36:51.635Z,0.4
2019-01-03T10:37:51.856Z,0.44
2019-01-03T10:38:51.859Z,0.45
2019-01-03T10:39:51.774Z,0.44
2019-01-03T10:40:51.771Z,0.47
2019-01-03T10:41:52.261Z,0.46
2019-01-03T10:42:51.614Z,0.48
2019-01-03T10:43:51.825Z,0.53
2019-01-03T10:44:51.844Z,0.53
2019-01-03T10:45:52.365Z,0.53
2019-01-03T10:46:51.709Z,0.54
2019-01-03T10:47:51.885Z,0.55
2019-01-03T10:48:51.581Z,0.51
2019-01-03T10:49:51.785Z,0.5
2019-01-03T10:50:51.511Z,0.47
2019-01-03T10:51:51.983Z,0.48
2019-01-03T10:52:52.366Z,0.48
2019-01-03T10:53:51.582Z,0.48
2019-01-03T10:54:51.880Z,0.5
2019-01-03T10:55:51.751Z,0.5
2019-01-03T10:56:51.733Z,0.47
2019-01-03T10:57:51.546Z,0.5
2019-01-03T10:58:52.187Z,0.48
2019-01-03T10:59:51.949Z,0.49
2019-01-03T11:00:52.094Z,0.52
2019-01-03T11:01:52.366Z,0.54
2019-01-03T11:02:52.103Z,0.53
2019-01-03T11:03:52.160Z,0.54
2019-01-03T11:04:51.569Z,0.55
2019-01-03T11:05:51.819Z,0.57
2019-01-03T11:06:51.706Z,0.59
2019-01-03T11:07:51.605Z,0.61
2019-01-03T11:08:51.744Z,0.63
2019-01-03T11:09:51.801Z,0.63
2019-01-03T11:10:52.086Z,0.63
2019-01-03T11:11:51.870Z,0.64
2019-01-03T11:12:51.765Z,0.63
2019-01-03T11:13:51.883Z,0.64
2019-01-03T11:14:52.085Z,0.64
2019-01-03T11:15:51.883Z,0.65
2019-01-03T11:16:51.813Z,0.65
2019-01-03T11:17:51.858Z,0.66
2019-01-03T11:18:51.651Z,0.66
2019-01-03T11:19:51.807Z,0.67
2019-01-03T11:20:51.647Z,0.66
2019-01-03T11:21:51.791Z,0.67
2019-01-03T11:22:51.799Z,0.65
2019-01-03T11:23:51.834Z,0.66
2019-01-03T11:24:51.506Z,0.66
2019-01-03T11:25:51.747Z,0.68
2019-01-03T11:26:51.502Z,0.65
2019-01-03T11:27:51.628Z,0.68
2019-01-03T11:28:51.858Z,0.67
2019-01-03T11:29:51.627Z,0.69
2019-01-03T11:30:51.842Z,0.67
2019-01-03T11:31:52.340Z,0.7
2019-01-03T11:32:51.684Z,0.71
2019-01-03T11:33:51.705Z,0.7
2019-01-03T11:34:51.731Z,0.7
2019-01-03T11:35:51.619Z,0.69
2019-01-03T11:36:51.943Z,0.7
2019-01-03T11:37:51.702Z,0.67
2019-01-03T11:38:51.829Z,0.67
2019-01-03T11:39:51.559Z,0.66
2019-01-03T11:40:53.497Z,0.67
2019-01-03T11:41:52.090Z,0.64
2019-01-03T11:42:51.601Z,0.64
2019-01-03T11:43:51.834Z,0.65
2019-01-03T11:44:51.863Z,0.63
2019-01-03T11:45:51.860Z,0.64
2019-01-03T11:46:51.599Z,0.63
2019-01-03T11:47:51.815Z,0.64
2019-01-03T11:48:51.620Z,0.63
2019-01-03T11:49:51.523Z,0.69
2019-01-03T11:50:51.652Z,0.71
2019-01-03T11:51:51.554Z,0.71
2019-01-03T11:52:51.605Z,0.72
2019-01-03T11:53:51.513Z,0.72
2019-01-03T11:54:51.471Z,0.74
2019-01-03T11:55:52.240Z,0.75
2019-01-03T11:56:51.499Z,0.78
2019-01-03T11:57:51.624Z,0.77
2019-01-03T11:58:51.651Z,0.8
2019-01-03T11:59:51.642Z,0.82
2019-01-03T12:00:51.933Z,0.84
2019-01-03T12:01:51.479Z,0.82
2019-01-03T12:02:51.474Z,0.79
2019-01-03T12:03:51.545Z,0.78
2019-01-03T12:04:51.716Z,0.79
2019-01-03T12:05:51.478Z,0.78
2019-01-03T12:06:51.451Z,0.78
2019-01-03T12:07:51.561Z,0.78
2019-01-03T12:08:51.582Z,0.78
2019-01-03T12:09:52.105Z,0.77
2019-01-03T12:10:51.720Z,0.82
2019-01-03T12:11:51.555Z,0.8
2019-01-03T12:12:52.229Z,0.83
2019-01-03T12:13:52.402Z,0.85
2019-01-03T12:14:51.866Z,0.85
2019-01-03T12:15:51.770Z,0.84
2019-01-03T12:16:51.796Z,0.84
2019-01-03T12:17:52.233Z,0.84
2019-01-03T12:18:52.804Z,0.85
2019-01-03T12:19:51.709Z,0.85
2019-01-03T12:20:51.708Z,0.87
2019-01-03T12:21:51.617Z,0.84
2019-01-03T12:22:51.581Z,0.86
2019-01-03T12:23:51.411Z,0.83
2019-01-03T12:24:54.973Z,0.81
2019-01-03T12:25:51.694Z,0.75
2019-01-03T12:26:52.129Z,0.74
2019-01-03T12:27:55.802Z,0.74
2019-01-03T12:28:53.253Z,0.76
2019-01-03T12:29:51.724Z,0.74
2019-01-03T12:30:52.022Z,0.78
2019-01-03T12:31:51.596Z,0.78
2019-01-03T12:32:51.574Z,0.78
2019-01-03T12:33:52.274Z,0.77
2019-01-03T12:34:51.435Z,0.77
2019-01-03T12:35:51.528Z,0.78
2019-01-03T12:36:51.415Z,0.79
2019-01-03T12:37:51.759Z,0.8
2019-01-03T12:38:51.911Z,0.8
2019-01-03T12:39:51.846Z,0.78
2019-01-03T12:40:51.543Z,0.78
2019-01-03T12:41:51.656Z,0.78
2019-01-03T12:42:51.437Z,0.79
2019-01-03T12:43:51.973Z,0.8
2019-01-03T12:44:51.701Z,0.8
2019-01-03T12:45:51.510Z,0.83
2019-01-03T12:46:51.553Z,0.81
2019-01-03T12:47:51.439Z,0.83
2019-01-03T12:48:51.727Z,0.83
2019-01-03T12:49:51.607Z,0.86
2019-01-03T12:50:51.394Z,0.83
2019-01-03T12:51:51.861Z,0.85
2019-01-03T12:52:52.267Z,0.84
2019-01-03T12:53:51.604Z,0.88
2019-01-03T12:54:51.551Z,0.89
2019-01-03T12:55:51.506Z,0.9
2019-01-03T12:56:51.763Z,0.91
2019-01-03T12:57:52.250Z,0.91
2019-01-03T12:58:51.803Z,0.9
2019-01-03T12:59:51.885Z,0.91
2019-01-03T13:00:51.452Z,0.89
2019-01-03T13:01:51.831Z,0.93